createdAt,value
2018-10-07T00:01:36.433Z,23.27
2018-10-07T00:04:05.197Z,23.30
2018-10-07T00:06:34.345Z,21.20
2018-10-07T00:09:03.469Z,19.23
2018-10-07T00:11:32.326Z,17.53
2018-10-07T00:14:00.453Z,16.27
2018-10-07T00:16:30.397Z,13.85
2018-10-07T00:18:58.569Z,12.43
2018-10-07T00:21:27.493Z,12.13
2018-10-07T00:23:56.443Z,10.73
2018-10-07T00:26:26.753Z,11.87
2018-10-07T00:28:56.381Z,11.10
2018-10-07T00:31:25.553Z,9.20
2018-10-07T00:33:54.270Z,8.47
2018-10-07T00:36:23.045Z,8.20
2018-10-07T00:38:52.024Z,8.30
2018-10-07T00:41:20.229Z,7.83
2018-10-07T00:43:48.476Z,7.27
2018-10-07T00:46:17.521Z,7.07
2018-10-07T00:48:45.597Z,6.20
2018-10-07T00:51:14.357Z,5.83
2018-10-07T00:53:44.201Z,6.40
2018-10-07T00:56:12.417Z,6.63
2018-10-07T00:58:41.613Z,6.60
2018-10-07T01:01:10.517Z,5.87
2018-10-07T01:03:39.351Z,5.90
2018-10-07T01:06:07.554Z,5.93
2018-10-07T01:08:36.413Z,5.50
2018-10-07T01:11:04.843Z,5.03
2018-10-07T01:13:33.546Z,5.67
2018-10-07T01:16:02.549Z,5.87
2018-10-07T01:18:31.211Z,5.83
2018-10-07T01:20:59.446Z,3.60
2018-10-07T01:23:29.401Z,2.87
2018-10-07T01:25:58.233Z,2.00
2018-10-07T01:28:27.558Z,1.97
2018-10-07T01:30:57.037Z,1.80
2018-10-07T01:33:26.421Z,1.42
2018-10-07T01:35:55.261Z,1.43
2018-10-07T01:38:24.409Z,1.32
2018-10-07T01:40:53.005Z,1.50
2018-10-07T01:43:21.377Z,1.47
2018-10-07T01:46:20.709Z,1.10
2018-10-07T01:48:49.619Z,1.20
2018-10-07T01:51:18.206Z,1.00
2018-10-07T01:53:47.862Z,0.80
2018-10-07T01:56:16.381Z,1.07
2018-10-07T01:58:45.248Z,1.20
2018-10-07T02:01:14.233Z,1.17
2018-10-07T02:03:42.413Z,0.87
2018-10-07T02:06:10.556Z,1.00
2018-10-07T02:08:39.405Z,0.80
2018-10-07T02:11:07.629Z,0.80
2018-10-07T02:13:37.405Z,0.78
2018-10-07T02:16:06.477Z,0.70
2018-10-07T02:18:34.633Z,0.70
2018-10-07T02:21:03.407Z,0.80
2018-10-07T02:23:32.309Z,0.80
2018-10-07T02:26:01.301Z,0.80
2018-10-07T02:28:30.269Z,1.03
2018-10-07T02:30:58.493Z,1.00
2018-10-07T02:33:28.502Z,0.75
2018-10-07T02:35:57.609Z,0.83
2018-10-07T02:38:26.232Z,1.37
2018-10-07T02:40:54.353Z,1.00
2018-10-07T02:43:25.281Z,1.17
2018-10-07T02:45:53.955Z,1.30
2018-10-07T02:48:22.090Z,1.20
2018-10-07T02:50:50.370Z,1.37
2018-10-07T02:53:18.616Z,1.17
2018-10-07T02:55:47.697Z,1.40
2018-10-07T02:58:15.905Z,1.37
2018-10-07T03:00:44.121Z,1.47
2018-10-07T03:03:13.941Z,1.25
2018-10-07T03:05:42.339Z,1.43
2018-10-07T03:08:10.777Z,1.40
2018-10-07T03:10:39.297Z,1.57
2018-10-07T03:13:08.518Z,1.20
2018-10-07T03:15:37.458Z,1.43
2018-10-07T03:18:06.387Z,1.50
2018-10-07T03:20:35.687Z,1.43
2018-10-07T03:23:04.681Z,1.40
2018-10-07T03:25:33.026Z,1.33
2018-10-07T03:28:01.261Z,1.47
2018-10-07T03:30:30.033Z,1.53
2018-10-07T03:32:58.333Z,1.80
2018-10-07T03:35:28.091Z,1.90
2018-10-07T03:37:57.106Z,2.00
2018-10-07T03:40:26.121Z,1.60
2018-10-07T03:42:55.105Z,1.50
2018-10-07T03:45:24.417Z,1.67
2018-10-07T03:47:52.569Z,1.50
2018-10-07T03:50:21.117Z,1.43
2018-10-07T03:52:49.363Z,1.40
2018-10-07T03:55:18.042Z,1.40
2018-10-07T03:57:47.109Z,1.40
2018-10-07T04:00:15.221Z,1.33
2018-10-07T04:02:44.265Z,1.37
2018-10-07T04:05:12.413Z,1.57
2018-10-07T04:07:41.837Z,1.57
2018-10-07T04:10:10.805Z,1.57
2018-10-07T04:12:39.169Z,1.27
2018-10-07T04:15:08.027Z,1.43
2018-10-07T04:17:37.197Z,1.70
2018-10-07T04:20:05.304Z,1.50
2018-10-07T04:22:34.361Z,1.67
2018-10-07T04:25:02.498Z,1.60
2018-10-07T04:27:31.737Z,1.63
2018-10-07T04:30:00.933Z,1.80
2018-10-07T04:33:33.926Z,1.70
2018-10-07T04:36:02.397Z,2.53
2018-10-07T04:38:32.031Z,1.60
2018-10-07T04:41:01.985Z,1.50
2018-10-07T04:43:31.538Z,1.17
2018-10-07T04:46:01.121Z,1.30
2018-10-07T04:48:32.049Z,1.00
2018-10-07T04:51:00.862Z,0.97
2018-10-07T04:53:30.210Z,1.00
2018-10-07T04:55:58.545Z,1.40
2018-10-07T04:58:27.861Z,1.00
2018-10-07T05:00:55.985Z,1.20
2018-10-07T05:03:24.573Z,0.90
2018-10-07T05:05:52.955Z,0.80
2018-10-07T05:08:22.429Z,1.10
2018-10-07T05:11:06.385Z,0.97
2018-10-07T05:13:42.485Z,1.17
2018-10-07T05:16:11.733Z,0.80
2018-10-07T05:18:41.105Z,0.93
2018-10-07T05:21:09.907Z,0.90
2018-10-07T05:23:39.026Z,1.10
2018-10-07T05:26:07.257Z,0.80
2018-10-07T05:28:35.946Z,0.90
2018-10-07T05:31:04.894Z,1.00
2018-10-07T05:33:33.174Z,1.00
2018-10-07T05:36:02.491Z,0.97
2018-10-07T05:38:31.345Z,0.93
2018-10-07T05:41:00.837Z,0.80
2018-10-07T05:43:28.915Z,1.17
2018-10-07T05:45:56.998Z,0.77
2018-10-07T05:48:25.227Z,0.57
2018-10-07T05:50:54.301Z,0.77
2018-10-07T05:53:23.015Z,0.75
2018-10-07T05:55:51.465Z,0.90
2018-10-07T05:58:21.001Z,0.80
2018-10-07T06:00:50.025Z,1.10
2018-10-07T06:03:31.317Z,1.73
2018-10-07T06:06:00.309Z,1.70
2018-10-07T06:08:29.190Z,1.70
2018-10-07T06:10:57.821Z,1.27
2018-10-07T06:13:26.007Z,1.33
2018-10-07T06:15:54.705Z,1.23
2018-10-07T06:18:23.009Z,1.20
2018-10-07T06:20:52.470Z,1.00
2018-10-07T06:23:21.794Z,1.00
2018-10-07T06:25:50.937Z,1.00
2018-10-07T06:28:19.134Z,1.00
2018-10-07T06:30:47.664Z,0.80
2018-10-07T06:33:15.822Z,0.73
2018-10-07T06:35:43.945Z,0.63
2018-10-07T06:38:13.313Z,0.70
2018-10-07T06:40:41.721Z,0.87
2018-10-07T06:43:09.793Z,0.80
2018-10-07T06:45:38.993Z,0.93
2018-10-07T06:48:07.102Z,1.07
2018-10-07T06:50:35.753Z,0.90
2018-10-07T06:53:05.099Z,1.00
2018-10-07T06:55:33.401Z,0.90
2018-10-07T06:58:02.677Z,0.90
2018-10-07T07:00:30.746Z,0.80
2018-10-07T07:02:59.741Z,0.90
2018-10-07T07:05:28.791Z,0.90
2018-10-07T07:07:58.137Z,0.63
2018-10-07T07:10:26.861Z,0.90
2018-10-07T07:12:55.022Z,0.77
2018-10-07T07:15:23.098Z,0.80
2018-10-07T07:17:52.065Z,0.50
2018-10-07T07:20:21.851Z,0.78
2018-10-07T07:22:50.549Z,0.77
2018-10-07T07:25:20.629Z,0.70
2018-10-07T07:27:49.657Z,0.70
2018-10-07T07:30:17.989Z,0.60
2018-10-07T07:32:46.389Z,0.90
2018-10-07T07:35:14.934Z,0.97
2018-10-07T07:37:44.297Z,0.70
2018-10-07T07:40:12.757Z,0.40
2018-10-07T07:42:41.450Z,0.50
2018-10-07T07:45:09.511Z,0.70
2018-10-07T07:47:38.663Z,0.60
2018-10-07T07:50:07.169Z,0.60
2018-10-07T07:52:36.722Z,0.70
2018-10-07T07:55:05.611Z,0.50
2018-10-07T07:57:34.813Z,0.40
2018-10-07T08:00:03.142Z,0.57
2018-10-07T08:02:31.341Z,0.50
2018-10-07T08:04:59.393Z,0.57
2018-10-07T08:07:28.573Z,1.13
2018-10-07T08:09:57.689Z,0.60
2018-10-07T08:12:25.747Z,0.50
2018-10-07T08:14:54.717Z,0.67
2018-10-07T08:17:22.936Z,0.57
2018-10-07T08:19:51.096Z,0.40
2018-10-07T08:22:19.713Z,0.40
2018-10-07T08:24:48.758Z,0.57
2018-10-07T08:27:17.710Z,0.43
2018-10-07T08:29:48.170Z,0.70
2018-10-07T08:32:17.658Z,0.40
2018-10-07T08:34:46.375Z,0.53
2018-10-07T08:40:47.402Z,0.30
2018-10-07T08:43:17.034Z,0.43
2018-10-07T08:45:45.349Z,0.80
2018-10-07T08:48:14.113Z,1.93
2018-10-07T08:50:43.155Z,0.90
2018-10-07T08:53:11.345Z,0.60
2018-10-07T08:55:39.597Z,0.53
2018-10-07T08:58:08.687Z,0.67
2018-10-07T09:00:38.450Z,0.60
2018-10-07T09:03:07.061Z,0.53
2018-10-07T09:05:35.793Z,0.60
2018-10-07T09:08:04.822Z,0.40
2018-10-07T09:10:32.897Z,0.60
2018-10-07T09:13:01.971Z,0.53
2018-10-07T09:15:30.090Z,0.72
2018-10-07T09:17:59.973Z,0.63
2018-10-07T09:20:28.657Z,0.50
2018-10-07T09:22:57.701Z,0.53
2018-10-07T09:25:26.528Z,0.47
2018-10-07T09:27:57.223Z,0.70
2018-10-07T09:30:25.483Z,0.90
2018-10-07T09:32:54.375Z,0.73
2018-10-07T09:35:22.709Z,0.80
2018-10-07T09:37:51.346Z,0.73
2018-10-07T09:40:19.785Z,0.87
2018-10-07T09:42:48.121Z,0.43
2018-10-07T09:45:16.546Z,0.33
2018-10-07T09:47:48.910Z,0.50
2018-10-07T09:50:17.057Z,0.37
2018-10-07T09:52:46.707Z,0.67
2018-10-07T09:55:15.633Z,0.30
2018-10-07T09:57:44.169Z,0.60
2018-10-07T10:00:12.897Z,0.45
2018-10-07T10:02:42.321Z,0.67
2018-10-07T10:05:10.462Z,0.50
2018-10-07T10:07:39.450Z,0.40
2018-10-07T10:10:07.849Z,0.30
2018-10-07T10:12:36.470Z,0.70
2018-10-07T10:15:05.329Z,0.30
2018-10-07T10:17:35.263Z,0.47
2018-10-07T10:20:06.999Z,0.40
2018-10-07T10:23:13.325Z,0.37
2018-10-07T10:28:02.017Z,0.40
2018-10-07T10:31:39.045Z,0.53
2018-10-07T10:34:15.062Z,0.53
2018-10-07T10:36:48.298Z,0.30
2018-10-07T10:39:27.686Z,0.50
2018-10-07T10:43:08.405Z,0.53
2018-10-07T10:45:46.354Z,0.73
2018-10-07T10:50:26.639Z,0.37
2018-10-07T10:54:07.439Z,0.43
2018-10-07T10:56:42.405Z,0.40
2018-10-07T10:59:15.930Z,0.40
2018-10-07T11:03:58.947Z,0.40
2018-10-07T11:06:39.793Z,0.20
2018-10-07T11:09:13.279Z,0.63
2018-10-07T11:12:03.941Z,0.35
2018-10-07T11:15:02.419Z,0.53
2018-10-07T11:17:45.597Z,0.42
2018-10-07T11:20:22.588Z,0.37
2018-10-07T11:23:08.409Z,0.27
2018-10-07T11:26:17.764Z,0.50
2018-10-07T11:29:11.383Z,0.50
2018-10-07T11:32:02.706Z,0.33
2018-10-07T11:34:39.300Z,0.47
2018-10-07T11:37:17.997Z,0.20
2018-10-07T11:39:57.661Z,0.17
2018-10-07T11:42:32.737Z,0.20
2018-10-07T11:45:12.513Z,0.40
2018-10-07T11:49:59.619Z,0.27
2018-10-07T11:52:41.386Z,0.25
2018-10-07T11:55:09.161Z,0.40
2018-10-07T11:57:37.638Z,0.23
2018-10-07T12:00:06.122Z,0.50
2018-10-07T12:02:35.248Z,0.20
2018-10-07T12:05:04.012Z,0.53
2018-10-07T12:07:33.117Z,0.50
2018-10-07T12:10:01.232Z,0.10
2018-10-07T12:12:29.337Z,0.40
2018-10-07T12:14:57.449Z,0.20
2018-10-07T12:17:26.109Z,0.20
2018-10-07T12:19:54.493Z,0.40
2018-10-07T12:22:22.631Z,0.30
2018-10-07T12:24:51.073Z,0.20
2018-10-07T12:27:19.314Z,0.33
2018-10-07T12:29:47.409Z,0.40
2018-10-07T12:32:16.365Z,0.60
2018-10-07T12:34:45.260Z,0.40
2018-10-07T12:37:14.901Z,0.35
2018-10-07T12:39:43.066Z,0.40
2018-10-07T12:42:12.081Z,0.80
2018-10-07T12:44:40.225Z,0.60
2018-10-07T12:47:08.661Z,0.50
2018-10-07T12:49:37.634Z,0.67
2018-10-07T12:52:05.729Z,1.10
2018-10-07T12:54:33.916Z,0.20
2018-10-07T12:57:03.252Z,0.30
2018-10-07T12:59:31.486Z,0.80
2018-10-07T13:02:00.228Z,0.50
2018-10-07T13:04:28.345Z,0.37
2018-10-07T13:06:56.561Z,0.40
2018-10-07T13:09:24.740Z,0.40
2018-10-07T13:11:53.329Z,0.40
2018-10-07T13:14:21.465Z,0.57
2018-10-07T13:16:49.534Z,0.47
2018-10-07T13:19:17.763Z,0.40
2018-10-07T13:21:45.846Z,0.30
2018-10-07T13:24:13.897Z,0.50
2018-10-07T13:26:42.278Z,0.60
2018-10-07T13:29:10.368Z,0.50
2018-10-07T13:31:38.441Z,0.50
2018-10-07T13:34:06.807Z,0.50
2018-10-07T13:36:34.941Z,0.40
2018-10-07T13:39:04.098Z,0.40
2018-10-07T13:41:32.369Z,0.40
2018-10-07T13:44:00.498Z,0.50
2018-10-07T13:46:28.662Z,0.40
2018-10-07T13:48:56.861Z,0.40
2018-10-07T13:51:24.925Z,0.37
2018-10-07T13:53:53.057Z,0.63
2018-10-07T13:56:21.271Z,1.07
2018-10-07T13:58:49.468Z,0.40
2018-10-07T14:01:17.592Z,0.53
2018-10-07T14:03:45.839Z,0.30
2018-10-07T14:06:14.181Z,0.50
2018-10-07T14:08:42.261Z,0.67
2018-10-07T14:11:10.384Z,0.50
2018-10-07T14:13:38.601Z,0.40
2018-10-07T14:16:07.161Z,0.50
2018-10-07T14:18:35.343Z,0.40
2018-10-07T14:21:03.512Z,0.47
2018-10-07T14:23:31.573Z,0.40
2018-10-07T14:25:59.769Z,0.40
2018-10-07T14:28:28.110Z,0.53
2018-10-07T14:30:56.229Z,0.47
2018-10-07T14:33:24.361Z,0.47
2018-10-07T14:35:52.488Z,0.80
2018-10-07T14:38:20.649Z,0.68
2018-10-07T14:40:48.821Z,0.70
2018-10-07T14:43:17.004Z,0.50
2018-10-07T14:45:45.130Z,0.40
2018-10-07T14:48:13.341Z,0.40
2018-10-07T14:50:41.476Z,0.60
2018-10-07T14:53:11.138Z,0.60
2018-10-07T14:55:39.281Z,0.50
2018-10-07T14:58:07.721Z,0.40
2018-10-07T15:00:35.841Z,0.60
2018-10-07T15:03:04.142Z,0.30
2018-10-07T15:05:32.281Z,0.60
2018-10-07T15:08:00.341Z,0.40
2018-10-07T15:10:28.843Z,0.30
2018-10-07T15:12:57.053Z,0.63
2018-10-07T15:15:25.194Z,0.50
2018-10-07T15:17:53.321Z,0.50
2018-10-07T15:20:21.397Z,0.50
2018-10-07T15:22:49.693Z,0.50
2018-10-07T15:25:18.196Z,0.80
2018-10-07T15:27:46.386Z,0.53
2018-10-07T15:30:14.544Z,0.80
2018-10-07T15:32:42.740Z,0.37
2018-10-07T15:40:04.502Z,1.00
2018-10-07T15:42:32.649Z,0.70
2018-10-07T15:45:00.860Z,0.70
2018-10-07T15:47:29.140Z,0.47
2018-10-07T15:49:57.332Z,0.70
2018-10-07T15:52:25.457Z,0.80
2018-10-07T15:54:53.933Z,0.50
2018-10-07T15:57:21.993Z,0.60
2018-10-07T15:59:50.093Z,0.80
2018-10-07T16:02:18.278Z,0.72
2018-10-07T16:04:46.421Z,0.70
2018-10-07T16:07:14.602Z,0.50
2018-10-07T16:09:43.112Z,0.60
2018-10-07T16:12:11.201Z,0.67
2018-10-07T16:14:39.305Z,0.63
2018-10-07T16:17:07.553Z,0.77
2018-10-07T16:19:35.657Z,0.40
2018-10-07T16:22:03.719Z,0.87
2018-10-07T16:24:31.961Z,0.80
2018-10-07T16:27:00.066Z,0.60
2018-10-07T16:29:28.280Z,0.80
2018-10-07T16:31:56.413Z,0.63
2018-10-07T16:34:24.582Z,0.90
2018-10-07T16:36:52.810Z,0.90
2018-10-07T16:39:21.098Z,0.50
2018-10-07T16:41:49.169Z,0.50
2018-10-07T16:44:17.292Z,0.53
2018-10-07T16:46:45.653Z,0.70
2018-10-07T16:49:14.318Z,0.80
2018-10-07T16:51:42.420Z,0.23
2018-10-07T16:54:10.689Z,0.60
2018-10-07T16:56:38.777Z,0.60
2018-10-07T16:59:06.839Z,0.70
2018-10-07T17:01:35.073Z,0.60
2018-10-07T17:04:03.274Z,0.97
2018-10-07T17:06:31.469Z,0.93
2018-10-07T17:08:59.696Z,1.27
2018-10-07T17:11:27.861Z,0.98
2018-10-07T17:13:56.017Z,0.70
2018-10-07T17:16:24.212Z,1.47
2018-10-07T17:18:52.397Z,1.53
2018-10-07T17:21:20.526Z,1.30
2018-10-07T17:23:48.716Z,1.30
2018-10-07T17:26:16.998Z,1.50
2018-10-07T17:28:45.177Z,1.90
2018-10-07T17:31:14.465Z,2.03
2018-10-07T17:33:42.664Z,1.50
2018-10-07T17:36:10.833Z,1.50
2018-10-07T17:38:38.992Z,1.53
2018-10-07T17:41:07.146Z,2.17
2018-10-07T17:43:35.346Z,1.77
2018-10-07T17:46:03.817Z,1.90
2018-10-07T17:48:32.158Z,1.97
2018-10-07T17:51:00.298Z,1.80
2018-10-07T17:53:28.601Z,1.60
2018-10-07T17:55:56.696Z,1.87
2018-10-07T17:58:24.890Z,2.15
2018-10-07T18:00:53.269Z,1.70
2018-10-07T18:03:22.265Z,1.80
2018-10-07T18:05:50.657Z,1.80
2018-10-07T18:08:18.957Z,2.12
2018-10-07T18:10:47.066Z,1.90
2018-10-07T18:13:15.245Z,2.33
2018-10-07T18:15:43.959Z,2.10
2018-10-07T18:18:12.193Z,2.33
2018-10-07T18:20:40.300Z,2.20
2018-10-07T18:23:08.705Z,3.70
2018-10-07T18:25:36.837Z,4.37
2018-10-07T18:28:05.510Z,3.60
2018-10-07T18:30:33.737Z,3.20
2018-10-07T18:33:01.873Z,2.40
2018-10-07T18:35:30.038Z,2.40
2018-10-07T18:37:58.238Z,2.00
2018-10-07T18:40:26.465Z,1.90
2018-10-07T18:42:54.568Z,2.13
2018-10-07T18:45:22.734Z,2.00
2018-10-07T18:47:51.234Z,2.27
2018-10-07T18:50:19.413Z,2.10
2018-10-07T18:52:47.596Z,2.00
2018-10-07T18:55:16.119Z,2.17
2018-10-07T18:57:44.233Z,2.00
2018-10-07T19:00:12.429Z,1.93
2018-10-07T19:02:40.736Z,2.00
2018-10-07T19:05:08.757Z,2.10
2018-10-07T19:07:36.917Z,2.40
2018-10-07T19:10:05.665Z,2.40
2018-10-07T19:12:33.829Z,2.03
2018-10-07T19:15:01.993Z,1.97
2018-10-07T19:17:30.509Z,2.27
2018-10-07T19:19:58.605Z,2.40
2018-10-07T19:22:26.825Z,2.23
2018-10-07T19:24:54.994Z,2.47
2018-10-07T19:27:23.071Z,2.58
2018-10-07T19:29:52.219Z,2.60
2018-10-07T19:32:20.833Z,2.62
2018-10-07T19:34:48.988Z,2.57
2018-10-07T19:37:18.259Z,3.10
2018-10-07T19:39:46.333Z,2.80
2018-10-07T19:42:14.477Z,2.70
2018-10-07T19:44:43.279Z,2.70
2018-10-07T19:47:12.013Z,2.20
2018-10-07T19:49:40.510Z,2.83
2018-10-07T19:52:08.683Z,2.43
2018-10-07T19:54:36.844Z,3.07
2018-10-07T19:57:05.344Z,2.20
2018-10-07T19:59:33.591Z,2.80
2018-10-07T20:02:01.687Z,2.50
2018-10-07T20:04:29.901Z,2.42
2018-10-07T20:06:58.037Z,2.57
2018-10-07T20:09:26.235Z,2.50
2018-10-07T20:11:54.789Z,2.70
2018-10-07T20:14:22.968Z,2.73
2018-10-07T20:16:51.186Z,2.73
2018-10-07T20:19:19.439Z,2.93
2018-10-07T20:21:47.518Z,2.67
2018-10-07T20:24:15.647Z,2.90
2018-10-07T20:26:43.904Z,2.87
2018-10-07T20:29:12.933Z,2.67
2018-10-07T20:31:41.194Z,3.20
2018-10-07T20:34:09.437Z,3.33
2018-10-07T20:36:37.545Z,3.00
2018-10-07T20:39:07.850Z,3.70
2018-10-07T20:41:35.944Z,3.03
2018-10-07T20:44:04.134Z,3.27
2018-10-07T20:46:32.381Z,3.17
2018-10-07T20:49:00.634Z,3.67
2018-10-07T20:51:28.738Z,3.33
2018-10-07T20:53:56.937Z,2.77
2018-10-07T20:56:25.161Z,3.07
2018-10-07T20:58:53.286Z,2.73
2018-10-07T21:01:21.650Z,3.20
2018-10-07T21:03:49.865Z,2.70
2018-10-07T21:06:17.981Z,3.13
2018-10-07T21:08:46.190Z,2.97
2018-10-07T21:12:17.737Z,2.73
2018-10-07T21:14:45.929Z,2.93
2018-10-07T21:17:14.112Z,2.43
2018-10-07T21:19:42.257Z,2.83
2018-10-07T21:22:10.794Z,2.57
2018-10-07T21:24:38.981Z,2.60
2018-10-07T21:27:07.077Z,2.50
2018-10-07T21:29:35.310Z,2.60
2018-10-07T21:32:03.438Z,2.73
2018-10-07T21:34:32.157Z,2.63
2018-10-07T21:37:00.535Z,2.50
2018-10-07T21:39:28.685Z,2.50
2018-10-07T21:41:56.878Z,2.43
2018-10-07T21:44:25.545Z,2.42
2018-10-07T21:46:53.779Z,2.23
2018-10-07T21:49:22.391Z,2.30
2018-10-07T21:51:50.605Z,2.13
2018-10-07T21:54:18.741Z,2.67
2018-10-07T21:56:46.939Z,1.90
2018-10-07T21:59:15.102Z,2.07
2018-10-07T22:01:43.269Z,2.10
2018-10-07T22:04:11.437Z,2.00
2018-10-07T22:06:39.706Z,2.00
2018-10-07T22:09:08.365Z,2.13
2018-10-07T22:11:36.509Z,2.23
2018-10-07T22:14:04.799Z,2.20
2018-10-07T22:16:33.024Z,2.40
2018-10-07T22:19:01.205Z,2.00
2018-10-07T22:21:29.399Z,2.60
2018-10-07T22:23:57.559Z,2.20
2018-10-07T22:26:26.602Z,2.50
2018-10-07T22:28:54.690Z,2.67
2018-10-07T22:31:22.910Z,3.07
2018-10-07T22:33:51.078Z,2.60
2018-10-07T22:36:19.216Z,2.95
2018-10-07T22:38:48.150Z,3.00
2018-10-07T22:41:16.300Z,2.20
2018-10-07T22:43:44.527Z,2.43
2018-10-07T22:46:12.970Z,2.50
2018-10-07T22:49:12.446Z,2.40
2018-10-07T22:51:40.641Z,2.40
2018-10-07T22:54:08.829Z,2.30
2018-10-07T22:56:36.965Z,2.27
2018-10-07T22:59:05.337Z,2.37
2018-10-07T23:01:33.576Z,2.07
2018-10-07T23:04:01.694Z,2.10
2018-10-07T23:06:29.890Z,2.35
2018-10-07T23:08:58.074Z,2.43
2018-10-07T23:11:26.209Z,2.02
2018-10-07T23:13:54.389Z,1.90
2018-10-07T23:16:22.597Z,2.50
2018-10-07T23:18:50.745Z,2.37
2018-10-07T23:21:18.913Z,2.08
2018-10-07T23:23:47.565Z,2.03
2018-10-07T23:26:15.666Z,2.30
2018-10-07T23:28:43.901Z,2.20
2018-10-07T23:32:15.758Z,1.57
2018-10-07T23:34:43.881Z,1.70
2018-10-07T23:37:12.293Z,2.00
2018-10-07T23:39:40.774Z,2.10
2018-10-07T23:42:08.945Z,2.17
2018-10-07T23:44:38.358Z,1.30
2018-10-07T23:47:06.510Z,1.60
2018-10-07T23:49:34.648Z,1.60
2018-10-07T23:52:02.751Z,1.70
2018-10-07T23:54:31.921Z,1.67
2018-10-07T23:56:59.985Z,1.90
2018-10-07T23:59:28.086Z,2.30
